Flight Track Log - Related Links

Times and Time Zones

All times are in EDT time to prevent confusion due to time zone crossing. See the SWA910 flight status page for this flight to view local times or setup timezone preferences in your user account.

Time Position Orientation Groundspeed Altitude Reporting Facility
EDT Latitude Longitude Course Direction KTS MPH feet Rate Location/Type
Fri 10:49:11 AM 36.0761 -115.1683 249° West 180 207 3,100  Level Los Angeles Center
Fri 10:50:42 AM 36.0456 -115.2661 249° West 249 287 5,600 1,916 Climbing Los Angeles Center
Fri 10:51:10 AM 36.0144 -115.2792 199° South 262 302 6,900 2,945 Climbing Los Angeles Center
Fri 10:51:37 AM 35.9806 -115.2953 201° Southwest 277 319 8,300 3,290 Climbing Los Angeles Center
Fri 10:52:12 AM 35.9350 -115.2792 164° South 289 333 10,300 2,907 Climbing Los Angeles Center
Fri 10:53:14 AM 35.9231 -115.1733 98° East 331 381 13,000 2,952 Climbing Los Angeles Center
Fri 10:54:16 AM 35.9233 -115.0436 90° East 357 411 16,400 3,242 Climbing Los Angeles Center
Fri 10:55:18 AM 35.9239 -114.9175 90° East 369 425 19,700 2,829 Climbing Los Angeles Center
Fri 10:56:19 AM 35.9228 -114.7861 91° East 392 451 22,200 1,951 Climbing Los Angeles Center
Fri 10:57:21 AM 35.9236 -114.6467 90° East 404 465 23,700 2,468 Climbing Los Angeles Center
Fri 10:58:23 AM 35.9239 -114.5122 90° East 396 456 27,300 2,613 Climbing Los Angeles Center
Fri 10:59:25 AM 35.8811 -114.3661 110° East 397 457 29,100 1,403 Climbing Los Angeles Center
Fri 11:00:27 AM 35.8239 -114.2403 119° Southeast 421 484 30,200 1,016 Climbing Los Angeles Center
Fri 11:01:29 AM 35.7625 -114.1050 119° Southeast 447 514 31,200 1,161 Climbing Los Angeles Center
Fri 11:02:31 AM 35.7061 -113.9800 119° Southeast 468 539 32,600 1,645 Climbing Los Angeles Center
Fri 11:03:33 AM 35.6306 -113.8119 119° Southeast 470 541 34,600 1,597 Climbing Los Angeles Center
Fri 11:04:35 AM 35.5669 -113.6719 119° Southeast 471 542 35,900 1,161 Climbing Los Angeles Center
Fri 11:05:37 AM 35.5022 -113.5303 119° Southeast 477 549 37,000 532 Climbing Los Angeles Center
Fri 11:06:39 AM 35.4367 -113.3881 119° Southeast 479 551 37,000  Level Los Angeles Center
Fri 11:07:41 AM 35.3617 -113.2250 119° Southeast 481 554 37,000  Level Los Angeles Center
Fri 11:08:43 AM 35.2958 -113.0831 120° Southeast 480 552 37,000  Level Los Angeles Center
Fri 11:09:45 AM 35.2231 -112.9267 120° Southeast 478 550 37,000  Level Los Angeles Center
Fri 11:10:47 AM 35.1569 -112.7864 120° Southeast 476 548 37,000  Level Los Angeles Center
Fri 11:11:49 AM 35.0869 -112.6356 120° Southeast 485 558 37,000  Level Los Angeles Center
Fri 11:12:51 AM 35.0206 -112.4947 120° Southeast 484 557 37,000  Level Los Angeles Center
Fri 11:13:54 AM 34.9536 -112.3528 120° Southeast 484 557 37,000  Level Los Angeles Center
Fri 11:15:01 AM 34.8697 -112.1828 121° Southeast 485 558 37,000  Level Albuquerque Center
Fri 11:16:04 AM 34.8022 -112.0408 120° Southeast 486 559 37,000  Level Albuquerque Center
Fri 11:17:06 AM 34.7297 -111.8911 120° Southeast 486 559 37,000 194 Level Albuquerque Center
Fri 11:18:08 AM 34.6619 -111.7469 120° Southeast 486 559 37,400 484 Climbing Albuquerque Center
Fri 11:19:10 AM 34.5919 -111.6033 121° Southeast 487 560 38,000 290 Climbing Albuquerque Center
Fri 11:20:12 AM 34.5222 -111.4572 120° Southeast 494 568 38,000  Level Albuquerque Center
Fri 11:21:14 AM 34.4506 -111.3125 121° Southeast 495 570 38,000  Level Albuquerque Center
Fri 11:22:16 AM 34.3806 -111.1672 120° Southeast 495 570 38,000 484 Level Albuquerque Center
Fri 11:23:18 AM 34.2953 -110.9950 121° Southeast 496 571 39,000 484 Climbing Albuquerque Center
Fri 11:24:20 AM 34.2244 -110.8511 121° Southeast 496 571 39,000  Level Albuquerque Center
Fri 11:25:22 AM 34.1583 -110.7172 121° Southeast 496 571 39,000  Level Albuquerque Center
Fri 11:26:24 AM 34.0867 -110.5742 121° Southeast 496 571 39,000  Level Albuquerque Center
Fri 11:27:26 AM 34.0164 -110.4331 121° Southeast 496 571 39,000  Level Albuquerque Center
Fri 11:28:28 AM 33.9294 -110.2625 122° Southeast 496 571 39,000  Level Albuquerque Center
Fri 11:29:30 AM 33.8589 -110.1200 121° Southeast 497 572 39,000  Level Albuquerque Center
Fri 11:30:33 AM 33.7861 -109.9761 121° Southeast 500 575 39,000  Level Albuquerque Center
Fri 11:31:35 AM 33.7144 -109.8331 121° Southeast 500 575 39,000  Level Albuquerque Center
Fri 11:32:37 AM 33.6417 -109.6881 121° Southeast 504 580 39,000  Level Albuquerque Center
Fri 11:33:39 AM 33.5539 -109.5164 121° Southeast 507 583 39,000  Level Albuquerque Center
Fri 11:34:41 AM 33.4806 -109.3744 122° Southeast 505 581 39,000  Level Albuquerque Center
Fri 11:35:43 AM 33.4072 -109.2336 122° Southeast 502 578 39,000  Level Albuquerque Center
Fri 11:36:45 AM 33.3344 -109.0917 122° Southeast 502 578 39,000  Level Albuquerque Center
Fri 11:37:47 AM 33.2589 -108.9486 122° Southeast 502 578 39,000  Level Albuquerque Center
Fri 11:38:49 AM 33.1767 -108.7903 122° Southeast 502 578 39,000  Level Albuquerque Center
Fri 11:39:51 AM 33.1092 -108.6625 122° Southeast 502 578 39,000  Level Albuquerque Center
Fri 11:40:53 AM 33.0344 -108.5231 123° Southeast 501 577 39,000  Level Albuquerque Center
Fri 11:41:55 AM 32.9464 -108.3553 122° Southeast 504 580 39,000  Level Albuquerque Center
Fri 11:42:57 AM 32.8725 -108.2183 123° Southeast 494 568 39,000  Level Albuquerque Center
Fri 11:44:00 AM 32.7939 -108.0714 122° Southeast 494 568 39,000  Level Albuquerque Center
Fri 11:45:02 AM 32.7192 -107.9336 123° Southeast 494 568 39,000  Level Albuquerque Center
Fri 11:46:04 AM 32.6453 -107.7950 122° Southeast 495 570 39,000  Level Albuquerque Center
Fri 11:47:06 AM 32.5711 -107.6575 123° Southeast 496 571 39,000  Level Albuquerque Center
Fri 11:48:08 AM 32.4856 -107.4986 123° Southeast 499 574 39,000  Level Albuquerque Center
Fri 11:49:10 AM 32.4108 -107.3622 123° Southeast 499 574 39,000  Level Albuquerque Center
Fri 11:50:12 AM 32.3367 -107.2236 122° Southeast 499 574 39,000  Level Albuquerque Center
Fri 11:51:14 AM 32.2533 -107.0664 122° Southeast 494 568 39,000  Level Albuquerque Center
Fri 11:52:16 AM 32.1778 -106.9317 124° Southeast 494 568 39,000  Level Albuquerque Center
Fri 11:53:18 AM 32.1014 -106.7922 123° Southeast 493 567 39,000  Level Albuquerque Center
Fri 11:54:20 AM 32.0253 -106.6561 123° Southeast 496 571 39,000  Level Albuquerque Center
Fri 11:55:22 AM 31.9500 -106.5214 123° Southeast 496 571 39,000  Level Albuquerque Center
Fri 11:56:25 AM 31.8664 -106.3747 124° Southeast 496 571 39,000  Level Albuquerque Center
Fri 11:57:27 AM 31.8042 -106.2256 116° Southeast 507 583 39,000  Level Albuquerque Center
Fri 11:58:29 AM 31.7614 -106.0644 107° East 515 593 39,000  Level Albuquerque Center
Fri 11:59:31 AM 31.7203 -105.9017 106° East 518 596 39,000  Level Albuquerque Center
Fri 12:00:33 PM 31.6792 -105.7386 106° East 519 597 39,000 -48 Level Albuquerque Center
Fri 12:01:35 PM 31.6383 -105.5747 106° East 520 598 38,900  Descending Albuquerque Center
Fri 12:02:37 PM 31.5900 -105.3811 106° East 518 596 39,000 48 Climbing Albuquerque Center
Fri 12:03:39 PM 31.5481 -105.2203 107° East 517 595 39,000  Level Albuquerque Center
Fri 12:04:41 PM 31.5083 -105.0594 106° East 516 594 39,000  Level Albuquerque Center
Fri 12:05:43 PM 31.4669 -104.8994 107° East 514 592 39,000 -48 Level Albuquerque Center
Fri 12:06:46 PM 31.4247 -104.7400 107° East 513 590 38,900  Descending Albuquerque Center
Fri 12:07:48 PM 31.3858 -104.5825 106° East 509 586 39,000 48 Climbing Albuquerque Center
Fri 12:08:50 PM 31.3447 -104.4250 107° East 507 583 39,000  Level Albuquerque Center
Fri 12:09:52 PM 31.2942 -104.2336 107° East 509 586 39,000  Level Albuquerque Center
Fri 12:10:54 PM 31.2522 -104.0767 107° East 509 586 39,000  Level Albuquerque Center
Fri 12:10:54 PM 31.2522 -104.0767 107° East 509 586 39,000  Level Albuquerque Center
Fri 12:11:56 PM 31.2092 -103.9194 108° East 508 585 39,000  Level Albuquerque Center
Fri 12:12:58 PM 31.1656 -103.7567 107° East 508 585 39,000  Level Albuquerque Center
Fri 12:14:00 PM 31.1214 -103.5997 108° East 510 587 39,000  Level Albuquerque Center
Fri 12:15:02 PM 31.0781 -103.4436 108° East 510 587 39,000 435 Level Albuquerque Center
Fri 12:16:04 PM 31.0258 -103.2553 108° East 511 588 39,900 871 Climbing Albuquerque Center
Fri 12:17:06 PM 30.9858 -103.1006 107° East 506 582 40,800 528 Climbing Albuquerque Center
Fri 12:18:09 PM 30.9428 -102.9456 108° East 506 582 41,000 96 Climbing Albuquerque Center
Fri 12:19:11 PM 30.9019 -102.7869 107° East 509 586 41,000  Level Albuquerque Center
Fri 12:20:13 PM 30.8614 -102.6297 107° East 510 587 41,000  Level Albuquerque Center
Fri 12:21:25 PM 30.8139 -102.4425 106° East 510 587 41,000  Level Houston Center
Fri 12:22:28 PM 30.7653 -102.2561 107° East 510 587 41,000  Level Houston Center
Fri 12:23:30 PM 30.7247 -102.1019 107° East 509 586 41,000  Level Houston Center
Fri 12:24:32 PM 30.6842 -101.9486 107° East 504 580 41,000  Level Houston Center
Fri 12:25:34 PM 30.6425 -101.7958 108° East 502 578 41,000  Level Houston Center
Fri 12:26:36 PM 30.6008 -101.6414 107° East 502 578 41,000  Level Houston Center
Fri 12:27:38 PM 30.5533 -101.4619 107° East 503 579 41,000  Level Houston Center
Fri 12:28:41 PM 30.5111 -101.3050 107° East 507 583 41,000  Level Houston Center
Fri 12:29:43 PM 30.4664 -101.1494 108° East 508 585 41,000  Level Houston Center
Fri 12:31:47 PM 30.2497 -100.9386 110° East 458 527 41,000  Level Houston Center
Fri 12:32:49 PM 30.1472 -100.8558 145° Southeast 456 525 41,000 -576 Level Houston Center
Fri 12:33:52 PM 30.0508 -100.7469 136° Southeast 469 540 39,800 -1,920 Descending Houston Center
Fri 12:34:54 PM 30.0306 -100.5947 99° East 512 589 37,000 -3,194 Descending Houston Center
Fri 12:35:56 PM 30.0144 -100.3908 95° East 531 611 33,200 -1,984 Descending Houston Center
Fri 12:36:58 PM 30.0039 -100.2439 95° East 535 616 32,900 -97 Descending Houston Center
Fri 12:38:00 PM 30.0147 -100.0756 86° East 509 586 33,000 -1,824 Climbing Houston Center
Fri 12:39:03 PM 29.9994 -99.8853 95° East 500 575 29,100 -3,696 Descending Houston Center
Fri 12:40:05 PM 29.9800 -99.7214 98° East 512 589 25,300 -3,484 Descending Houston Center
Fri 12:41:07 PM 29.9594 -99.5608 98° East 510 587 21,900 -2,661 Descending Houston Center
Fri 12:42:09 PM 29.9561 -99.4131 91° East 457 526 19,800 -2,032 Descending Houston Center
Fri 12:43:11 PM 29.9983 -99.2831 69° East 433 498 17,700 -2,341 Descending Houston Center
Fri 12:43:31 PM 29.9850 -99.2256 105° East 391 450 16,600 -2,476 Descending Houston Center
Fri 12:44:14 PM 29.9539 -99.1706 123° Southeast 392 451 15,100 -2,680 Descending Houston Center
Fri 12:45:14 PM 29.8803 -99.0592 127° Southeast 367 422 12,000 -3,000 Descending Houston Center
Fri 12:45:16 PM 29.8778 -99.0506 109° East 371 427 12,000 -1,781 Level Houston Center
Fri 12:46:18 PM 29.8256 -98.9561 122° Southeast 351 404 10,100 -1,450 Descending Houston Center
Fri 12:47:16 PM 29.7919 -98.8647 113° Southeast 303 349 9,100 -968 Descending Houston Center
Fri 12:47:20 PM 29.7925 -98.8625 74° East 320 368 9,100 -1,377 Level Houston Center
Fri 12:48:17 PM 29.7589 -98.7747 114° Southeast 298 343 7,700 -1,548 Descending Houston Center
Fri 12:48:22 PM 29.7578 -98.7683 101° East 302 348 7,500 -618 Descending Houston Center
Fri 12:49:25 PM 29.7261 -98.6839 113° Southeast 288 331 7,000 -649 Descending Houston Center
Fri 12:50:13 PM 29.7031 -98.6225 113° Southeast 249 287 6,300 -774 Descending Houston Center
Fri 12:50:27 PM 29.6969 -98.6044 111° Southeast 254 292 6,200 -237 Descending Houston Center
Fri 12:51:29 PM 29.6719 -98.5361 113° Southeast 232 267 6,000 -112 Descending Houston Center
Fri 12:52:14 PM 29.6533 -98.4914 116° Southeast 197 227 6,000  Level Houston Center
Fri 12:52:31 PM 29.6547 -98.4700 86° East 207 238 6,000 -774 Level Houston Center
Fri 12:53:16 PM 29.6883 -98.4392 39° Northeast 226 260 5,200 -968 Descending Houston Center
Fri 12:53:33 PM 29.7056 -98.4269 32° Northeast 226 260 5,000 -98 Descending Houston Center
Fri 12:54:17 PM 29.7414 -98.3992 34° Northeast 230 265 5,100 97 Climbing Houston Center
Fri 12:54:35 PM 29.7586 -98.3869 32° Northeast 228 262 5,100 -90 Level Houston Center
Fri 12:55:24 PM 29.8022 -98.3531 34° Northeast 226 260 5,000 -95 Descending Houston Center
Fri 12:55:38 PM 29.8150 -98.3436 33° Northeast 227 261 5,000  Level Houston Center
Fri 12:56:18 PM 29.8444 -98.3094 45° Northeast 226 260 5,000  Level Houston Center
Fri 12:56:40 PM 29.8578 -98.2906 51° Northeast 226 260 5,000  Level Houston Center
Fri 12:57:19 PM 29.8536 -98.2506 97° East 195 224 5,000  Level Houston Center
Fri 12:57:42 PM 29.8456 -98.2308 115° Southeast 187 215 5,000 98 Level Houston Center
Fri 12:58:20 PM 29.8322 -98.2003 117° Southeast 175 201 5,100  Climbing Houston Center
Fri 12:58:44 PM 29.8156 -98.1942 162° South 181 208 5,000 -97 Descending Houston Center
Fri 12:59:22 PM 29.7931 -98.2097 211° Southwest 153 176 5,000  Level Houston Center
Fri 12:59:46 PM 29.7800 -98.2269 229° Southwest 158 182 5,000 -444 Level Houston Center
Fri 01:00:16 PM 29.7650 -98.2444 225° Southwest 156 180 4,600 -857 Descending Houston Center
Fri 01:00:49 PM 29.7478 -98.2589 216° Southwest 157 181 4,100 -448 Descending Houston Center
Fri 01:01:23 PM 29.7261 -98.2783 218° Southwest 151 174 4,100 97 Level Houston Center
Fri 01:01:51 PM 29.7122 -98.2911 219° Southwest 155 178 4,200 98 Climbing Houston Center
Fri 01:02:24 PM 29.6931 -98.3086 218° Southwest 154 177 4,200 -97 Level Houston Center
Fri 01:02:53 PM 29.6772 -98.3228 218° Southwest 158 182 4,100 -625 Descending Houston Center
Fri 01:03:12 PM 29.6661 -98.3336 220° Southwest 165 190 3,700 -1,161 Descending Houston Center
Fri 01:03:55 PM 29.6369 -98.3597 218° Southwest 168 193 2,900 -835 Descending Houston Center
Fri 01:04:31 PM 29.6178 -98.3781 220° Southwest 167 192 2,600 -484 Descending Houston Center
Fri 01:04:57 PM 29.6036 -98.3906 217° Southwest 158 182 2,400 -490 Descending Houston Center
Fri 01:05:20 PM 29.5928 -98.4025 224° Southwest 137 158 2,200 -677 Descending Houston Center
Fri 01:05:59 PM 29.5769 -98.4175 219° Southwest 132 152 1,700 -655 Descending Houston Center
Fri 01:06:15 PM 29.5675 -98.4250 215° Southwest 119 137 1,600 -667 Descending Houston Center
Fri 01:07:02 PM 29.5478 -98.4453 222° Southwest 126 145 1,000 -766 Descending Houston Center

Login

Don't have an account? Register now (free) for customized features, flight alerts, and more!